Aviation Digital Data Service (ADDS)

Output produced by METARs form (0029 UTC 17 July 2019)
found at http://www.aviationweather.gov/metar/data/
 
TAF SGAS 162235Z 1700/1800 15005KT CAVOK TX24/1719Z TN08/1709Z 
     PROB30 1708/1710 09003KT 8000 NSC 
     BECMG 1712/1715 05010KT 9999 SCT027
       
TAF COR SGES 162304Z 1700/1800 18004KT CAVOK TX22/1719Z TN09/1709Z 
     PROB30 
     BECMG 1702/1705 VRB03KT CAVOK 
     PROB40 1708/1710 00000KT 4000 BR NSC 
     BECMG 1712/1757 07008KT 9999 SCT027
       
TAF SGCO 162235Z 1700/1800 18008KT CAVOK TX26/1619Z TN11/1709Z 
     BECMG 1710/1713 07008KT 9999 SCT027 
     BECMG 1714/1716 07008KT 9999 BKN027